sensor_id;sensor_type;location;lat;lon;timestamp;temperature;humidity
18384;DHT22;9318;48.644;9.456;2022-10-16T00:00:41;16.20;99.90
18384;DHT22;9318;48.644;9.456;2022-10-16T00:03:09;16.20;99.90
18384;DHT22;9318;48.644;9.456;2022-10-16T00:05:41;16.20;99.90
18384;DHT22;9318;48.644;9.456;2022-10-16T00:08:10;16.20;99.90
18384;DHT22;9318;48.644;9.456;2022-10-16T00:10:37;16.20;99.90
18384;DHT22;9318;48.644;9.456;2022-10-16T00:13:07;16.20;99.90
18384;DHT22;9318;48.644;9.456;2022-10-16T00:15:35;16.20;99.90
18384;DHT22;9318;48.644;9.456;2022-10-16T00:18:04;16.10;99.90
18384;DHT22;9318;48.644;9.456;2022-10-16T00:20:34;16.10;99.90
18384;DHT22;9318;48.644;9.456;2022-10-16T00:23:02;16.10;99.90
18384;DHT22;9318;48.644;9.456;2022-10-16T00:25:30;16.10;99.90
18384;DHT22;9318;48.644;9.456;2022-10-16T00:27:59;16.00;99.90
18384;DHT22;9318;48.644;9.456;2022-10-16T00:30:28;16.00;99.90
18384;DHT22;9318;48.644;9.456;2022-10-16T00:32:55;16.00;99.90
18384;DHT22;9318;48.644;9.456;2022-10-16T00:35:22;15.90;99.90
18384;DHT22;9318;48.644;9.456;2022-10-16T00:37:49;15.90;99.90
18384;DHT22;9318;48.644;9.456;2022-10-16T00:40:17;15.90;99.90
18384;DHT22;9318;48.644;9.456;2022-10-16T00:42:44;15.90;99.90
18384;DHT22;9318;48.644;9.456;2022-10-16T00:45:11;15.90;99.90
18384;DHT22;9318;48.644;9.456;2022-10-16T00:47:42;15.80;99.90
18384;DHT22;9318;48.644;9.456;2022-10-16T00:50:20;15.80;99.90
18384;DHT22;9318;48.644;9.456;2022-10-16T00:52:52;15.80;99.90
18384;DHT22;9318;48.644;9.456;2022-10-16T00:55:19;15.70;99.90
18384;DHT22;9318;48.644;9.456;2022-10-16T00:57:47;15.70;99.90
18384;DHT22;9318;48.644;9.456;2022-10-16T01:00:17;15.70;99.90
18384;DHT22;9318;48.644;9.456;2022-10-16T01:02:52;15.70;99.90
18384;DHT22;9318;48.644;9.456;2022-10-16T01:05:20;15.70;99.90
18384;DHT22;9318;48.644;9.456;2022-10-16T01:07:56;15.70;99.90
18384;DHT22;9318;48.644;9.456;2022-10-16T01:10:30;15.70;99.90
18384;DHT22;9318;48.644;9.456;2022-10-16T01:13:05;15.70;99.90
18384;DHT22;9318;48.644;9.456;2022-10-16T01:15:37;15.70;99.90
18384;DHT22;9318;48.644;9.456;2022-10-16T01:18:10;15.70;99.90
18384;DHT22;9318;48.644;9.456;2022-10-16T01:20:44;15.70;99.90
18384;DHT22;9318;48.644;9.456;2022-10-16T01:23:27;15.70;99.90
18384;DHT22;9318;48.644;9.456;2022-10-16T01:26:23;15.60;99.90
18384;DHT22;9318;48.644;9.456;2022-10-16T01:28:55;15.60;99.90
18384;DHT22;9318;48.644;9.456;2022-10-16T01:31:27;15.60;99.90
18384;DHT22;9318;48.644;9.456;2022-10-16T01:34:00;15.50;99.90
18384;DHT22;9318;48.644;9.456;2022-10-16T01:36:33;15.50;99.90
18384;DHT22;9318;48.644;9.456;2022-10-16T01:39:03;15.50;99.90
18384;DHT22;9318;48.644;9.456;2022-10-16T01:41:33;15.60;99.90
18384;DHT22;9318;48.644;9.456;2022-10-16T01:44:05;15.60;99.90
18384;DHT22;9318;48.644;9.456;2022-10-16T01:46:36;15.60;99.90
18384;DHT22;9318;48.644;9.456;2022-10-16T01:49:05;15.60;99.90
18384;DHT22;9318;48.644;9.456;2022-10-16T01:51:34;15.60;99.90
18384;DHT22;9318;48.644;9.456;2022-10-16T01:54:02;15.50;99.90
18384;DHT22;9318;48.644;9.456;2022-10-16T01:56:31;15.50;99.90
18384;DHT22;9318;48.644;9.456;2022-10-16T01:59:00;15.50;99.90
18384;DHT22;9318;48.644;9.456;2022-10-16T02:01:33;15.60;99.90
18384;DHT22;9318;48.644;9.456;2022-10-16T02:04:04;15.60;99.90
18384;DHT22;9318;48.644;9.456;2022-10-16T02:06:34;15.60;99.90
18384;DHT22;9318;48.644;9.456;2022-10-16T02:09:02;15.60;99.90
18384;DHT22;9318;48.644;9.456;2022-10-16T02:11:29;15.60;99.90
18384;DHT22;9318;48.644;9.456;2022-10-16T02:14:00;15.60;99.90
18384;DHT22;9318;48.644;9.456;2022-10-16T02:16:36;15.60;99.90
18384;DHT22;9318;48.644;9.456;2022-10-16T02:19:04;15.60;99.90
18384;DHT22;9318;48.644;9.456;2022-10-16T02:21:38;15.60;99.90
18384;DHT22;9318;48.644;9.456;2022-10-16T02:24:11;15.60;99.90
18384;DHT22;9318;48.644;9.456;2022-10-16T02:26:45;15.60;99.90
18384;DHT22;9318;48.644;9.456;2022-10-16T02:29:19;15.50;99.90
18384;DHT22;9318;48.644;9.456;2022-10-16T02:31:51;15.50;99.90
18384;DHT22;9318;48.644;9.456;2022-10-16T02:34:21;15.50;99.90
18384;DHT22;9318;48.644;9.456;2022-10-16T02:36:50;15.50;99.90
18384;DHT22;9318;48.644;9.456;2022-10-16T02:39:20;15.50;99.90
18384;DHT22;9318;48.644;9.456;2022-10-16T02:41:47;15.50;99.90
18384;DHT22;9318;48.644;9.456;2022-10-16T02:44:15;15.60;99.90
18384;DHT22;9318;48.644;9.456;2022-10-16T02:46:42;15.60;99.90
18384;DHT22;9318;48.644;9.456;2022-10-16T02:49:10;15.50;99.90
18384;DHT22;9318;48.644;9.456;2022-10-16T02:51:38;15.50;99.90
18384;DHT22;9318;48.644;9.456;2022-10-16T02:54:05;15.50;99.90
18384;DHT22;9318;48.644;9.456;2022-10-16T02:56:32;15.50;99.90
18384;DHT22;9318;48.644;9.456;2022-10-16T02:58:59;15.50;99.90
18384;DHT22;9318;48.644;9.456;2022-10-16T03:01:26;15.50;99.90
18384;DHT22;9318;48.644;9.456;2022-10-16T03:03:53;15.50;99.90
18384;DHT22;9318;48.644;9.456;2022-10-16T03:06:22;15.50;99.90
18384;DHT22;9318;48.644;9.456;2022-10-16T03:08:49;15.50;99.90
18384;DHT22;9318;48.644;9.456;2022-10-16T03:11:17;15.50;99.90
18384;DHT22;9318;48.644;9.456;2022-10-16T03:13:44;15.50;99.90
18384;DHT22;9318;48.644;9.456;2022-10-16T03:16:11;15.50;99.90
18384;DHT22;9318;48.644;9.456;2022-10-16T03:18:38;15.50;99.90
18384;DHT22;9318;48.644;9.456;2022-10-16T03:21:05;15.50;99.90
18384;DHT22;9318;48.644;9.456;2022-10-16T03:23:34;15.50;99.90
18384;DHT22;9318;48.644;9.456;2022-10-16T03:26:01;15.50;99.90
18384;DHT22;9318;48.644;9.456;2022-10-16T03:28:28;15.50;99.90
18384;DHT22;9318;48.644;9.456;2022-10-16T03:30:56;15.50;99.90
18384;DHT22;9318;48.644;9.456;2022-10-16T03:33:23;15.40;99.90
18384;DHT22;9318;48.644;9.456;2022-10-16T03:35:53;15.40;99.90
18384;DHT22;9318;48.644;9.456;2022-10-16T03:38:21;15.40;99.90
18384;DHT22;9318;48.644;9.456;2022-10-16T03:40:50;15.40;99.90
18384;DHT22;9318;48.644;9.456;2022-10-16T03:43:17;15.40;99.90
18384;DHT22;9318;48.644;9.456;2022-10-16T03:45:44;15.40;99.90
18384;DHT22;9318;48.644;9.456;2022-10-16T03:48:11;15.40;99.90
18384;DHT22;9318;48.644;9.456;2022-10-16T03:50:38;15.40;99.90
18384;DHT22;9318;48.644;9.456;2022-10-16T03:53:05;15.40;99.90
18384;DHT22;9318;48.644;9.456;2022-10-16T03:55:32;15.30;99.90
18384;DHT22;9318;48.644;9.456;2022-10-16T03:58:01;15.40;99.90
18384;DHT22;9318;48.644;9.456;2022-10-16T04:00:28;15.30;99.90
18384;DHT22;9318;48.644;9.456;2022-10-16T04:02:55;15.30;99.90
18384;DHT22;9318;48.644;9.456;2022-10-16T04:05:23;15.40;99.90
18384;DHT22;9318;48.644;9.456;2022-10-16T04:07:50;15.40;99.90
18384;DHT22;9318;48.644;9.456;2022-10-16T04:10:17;15.40;99.90
18384;DHT22;9318;48.644;9.456;2022-10-16T04:12:45;15.40;99.90
18384;DHT22;9318;48.644;9.456;2022-10-16T04:15:13;15.40;99.90
18384;DHT22;9318;48.644;9.456;2022-10-16T04:17:40;15.40;99.90
18384;DHT22;9318;48.644;9.456;2022-10-16T04:20:08;15.40;99.90
18384;DHT22;9318;48.644;9.456;2022-10-16T04:22:35;15.40;99.90
18384;DHT22;9318;48.644;9.456;2022-10-16T04:25:03;15.40;99.90
18384;DHT22;9318;48.644;9.456;2022-10-16T04:27:30;15.40;99.90
18384;DHT22;9318;48.644;9.456;2022-10-16T04:29:58;15.30;99.90
18384;DHT22;9318;48.644;9.456;2022-10-16T04:32:27;15.30;99.90
18384;DHT22;9318;48.644;9.456;2022-10-16T04:34:54;15.30;99.90
18384;DHT22;9318;48.644;9.456;2022-10-16T04:37:24;15.30;99.90
18384;DHT22;9318;48.644;9.456;2022-10-16T04:39:52;15.30;99.90
18384;DHT22;9318;48.644;9.456;2022-10-16T04:42:19;15.30;99.90
18384;DHT22;9318;48.644;9.456;2022-10-16T04:44:47;15.20;99.90
18384;DHT22;9318;48.644;9.456;2022-10-16T04:47:14;15.20;99.90
18384;DHT22;9318;48.644;9.456;2022-10-16T04:49:42;15.20;99.90
18384;DHT22;9318;48.644;9.456;2022-10-16T04:52:09;15.20;99.90
18384;DHT22;9318;48.644;9.456;2022-10-16T04:54:37;15.20;99.90
18384;DHT22;9318;48.644;9.456;2022-10-16T04:57:04;15.20;99.90
18384;DHT22;9318;48.644;9.456;2022-10-16T04:59:31;15.30;99.90
18384;DHT22;9318;48.644;9.456;2022-10-16T05:01:59;15.20;99.90
18384;DHT22;9318;48.644;9.456;2022-10-16T05:04:26;15.20;99.90
18384;DHT22;9318;48.644;9.456;2022-10-16T05:06:54;15.30;99.90
18384;DHT22;9318;48.644;9.456;2022-10-16T05:09:21;15.20;99.90
18384;DHT22;9318;48.644;9.456;2022-10-16T05:11:49;15.20;99.90
18384;DHT22;9318;48.644;9.456;2022-10-16T05:14:16;15.20;99.90
18384;DHT22;9318;48.644;9.456;2022-10-16T05:16:43;15.20;99.90
18384;DHT22;9318;48.644;9.456;2022-10-16T05:19:10;15.20;99.90
18384;DHT22;9318;48.644;9.456;2022-10-16T05:21:38;15.10;99.90
18384;DHT22;9318;48.644;9.456;2022-10-16T05:24:06;15.10;99.90
18384;DHT22;9318;48.644;9.456;2022-10-16T05:26:34;15.10;99.90
18384;DHT22;9318;48.644;9.456;2022-10-16T05:29:01;15.20;99.90
18384;DHT22;9318;48.644;9.456;2022-10-16T05:31:29;15.20;99.90
18384;DHT22;9318;48.644;9.456;2022-10-16T05:33:58;15.20;99.90
18384;DHT22;9318;48.644;9.456;2022-10-16T05:36:26;15.20;99.90
18384;DHT22;9318;48.644;9.456;2022-10-16T05:38:53;15.30;99.90
18384;DHT22;9318;48.644;9.456;2022-10-16T05:41:22;15.30;99.90
18384;DHT22;9318;48.644;9.456;2022-10-16T05:43:51;15.20;99.90
18384;DHT22;9318;48.644;9.456;2022-10-16T05:46:18;15.20;99.90
18384;DHT22;9318;48.644;9.456;2022-10-16T05:48:46;15.20;99.90
18384;DHT22;9318;48.644;9.456;2022-10-16T05:51:14;15.10;99.90
18384;DHT22;9318;48.644;9.456;2022-10-16T05:53:42;15.10;99.90
18384;DHT22;9318;48.644;9.456;2022-10-16T05:56:10;15.00;99.90
18384;DHT22;9318;48.644;9.456;2022-10-16T05:58:40;15.00;99.90
18384;DHT22;9318;48.644;9.456;2022-10-16T06:01:10;15.00;99.90
18384;DHT22;9318;48.644;9.456;2022-10-16T06:03:38;15.00;99.90
18384;DHT22;9318;48.644;9.456;2022-10-16T06:06:09;15.00;99.90
18384;DHT22;9318;48.644;9.456;2022-10-16T06:08:36;15.00;99.90
18384;DHT22;9318;48.644;9.456;2022-10-16T06:11:05;15.00;99.90
18384;DHT22;9318;48.644;9.456;2022-10-16T06:13:32;15.00;99.90
18384;DHT22;9318;48.644;9.456;2022-10-16T06:16:02;15.00;99.90
18384;DHT22;9318;48.644;9.456;2022-10-16T06:18:30;15.00;99.90
18384;DHT22;9318;48.644;9.456;2022-10-16T06:20:58;15.00;99.90
18384;DHT22;9318;48.644;9.456;2022-10-16T06:23:25;15.10;99.90
18384;DHT22;9318;48.644;9.456;2022-10-16T06:25:54;15.10;99.90
18384;DHT22;9318;48.644;9.456;2022-10-16T06:28:30;15.10;99.90
18384;DHT22;9318;48.644;9.456;2022-10-16T06:31:00;15.20;99.90
18384;DHT22;9318;48.644;9.456;2022-10-16T06:33:28;15.20;99.90
18384;DHT22;9318;48.644;9.456;2022-10-16T06:36:00;15.20;99.90
18384;DHT22;9318;48.644;9.456;2022-10-16T06:38:28;15.20;99.90
18384;DHT22;9318;48.644;9.456;2022-10-16T06:40:55;15.20;99.90
18384;DHT22;9318;48.644;9.456;2022-10-16T06:43:22;15.30;99.90
18384;DHT22;9318;48.644;9.456;2022-10-16T06:45:52;15.30;99.90
18384;DHT22;9318;48.644;9.456;2022-10-16T06:48:23;15.40;99.90
18384;DHT22;9318;48.644;9.456;2022-10-16T06:50:58;15.50;99.90
18384;DHT22;9318;48.644;9.456;2022-10-16T06:53:26;15.50;99.90
18384;DHT22;9318;48.644;9.456;2022-10-16T06:55:53;15.60;99.90
18384;DHT22;9318;48.644;9.456;2022-10-16T06:58:20;15.60;99.90
18384;DHT22;9318;48.644;9.456;2022-10-16T07:00:47;15.60;99.90
18384;DHT22;9318;48.644;9.456;2022-10-16T07:03:15;15.70;99.90
18384;DHT22;9318;48.644;9.456;2022-10-16T07:05:44;15.80;99.90
18384;DHT22;9318;48.644;9.456;2022-10-16T07:08:11;15.80;99.90
18384;DHT22;9318;48.644;9.456;2022-10-16T07:10:38;15.90;99.90
18384;DHT22;9318;48.644;9.456;2022-10-16T07:13:05;15.90;99.90
18384;DHT22;9318;48.644;9.456;2022-10-16T07:15:33;15.90;99.90
18384;DHT22;9318;48.644;9.456;2022-10-16T07:18:01;16.00;99.90
18384;DHT22;9318;48.644;9.456;2022-10-16T07:20:28;15.90;99.90
18384;DHT22;9318;48.644;9.456;2022-10-16T07:22:56;16.00;99.90
18384;DHT22;9318;48.644;9.456;2022-10-16T07:25:24;16.00;99.90
18384;DHT22;9318;48.644;9.456;2022-10-16T07:27:51;16.00;99.90
18384;DHT22;9318;48.644;9.456;2022-10-16T07:30:20;16.00;99.90
18384;DHT22;9318;48.644;9.456;2022-10-16T07:32:47;16.00;99.90
18384;DHT22;9318;48.644;9.456;2022-10-16T07:35:15;16.00;99.90
18384;DHT22;9318;48.644;9.456;2022-10-16T07:37:44;16.00;99.90
18384;DHT22;9318;48.644;9.456;2022-10-16T07:40:13;16.00;99.90
18384;DHT22;9318;48.644;9.456;2022-10-16T07:42:40;16.10;99.90
18384;DHT22;9318;48.644;9.456;2022-10-16T07:45:08;16.10;99.90
18384;DHT22;9318;48.644;9.456;2022-10-16T07:47:35;16.10;99.90
18384;DHT22;9318;48.644;9.456;2022-10-16T07:50:03;16.10;99.90
18384;DHT22;9318;48.644;9.456;2022-10-16T07:52:30;16.10;99.90
18384;DHT22;9318;48.644;9.456;2022-10-16T07:54:57;16.20;99.90
18384;DHT22;9318;48.644;9.456;2022-10-16T07:57:26;16.20;99.90
18384;DHT22;9318;48.644;9.456;2022-10-16T07:59:53;15.30;99.90
18384;DHT22;9318;48.644;9.456;2022-10-16T08:02:20;16.30;99.90
18384;DHT22;9318;48.644;9.456;2022-10-16T08:04:47;16.30;99.90
18384;DHT22;9318;48.644;9.456;2022-10-16T08:07:15;16.30;99.90
18384;DHT22;9318;48.644;9.456;2022-10-16T08:09:42;16.40;99.90
18384;DHT22;9318;48.644;9.456;2022-10-16T08:12:10;16.40;99.90
18384;DHT22;9318;48.644;9.456;2022-10-16T08:14:39;16.40;99.90
18384;DHT22;9318;48.644;9.456;2022-10-16T08:17:07;16.50;99.90
18384;DHT22;9318;48.644;9.456;2022-10-16T08:19:34;16.50;99.90
18384;DHT22;9318;48.644;9.456;2022-10-16T08:22:01;16.60;99.90
18384;DHT22;9318;48.644;9.456;2022-10-16T08:24:28;16.60;99.90
18384;DHT22;9318;48.644;9.456;2022-10-16T08:26:56;16.60;99.90
18384;DHT22;9318;48.644;9.456;2022-10-16T08:29:24;16.60;99.90
18384;DHT22;9318;48.644;9.456;2022-10-16T08:31:52;16.70;99.90
18384;DHT22;9318;48.644;9.456;2022-10-16T08:34:19;16.70;99.90
18384;DHT22;9318;48.644;9.456;2022-10-16T08:36:46;16.80;99.90
18384;DHT22;9318;48.644;9.456;2022-10-16T08:39:13;16.90;99.90
18384;DHT22;9318;48.644;9.456;2022-10-16T08:42:16;17.00;99.90
18384;DHT22;9318;48.644;9.456;2022-10-16T08:47:48;17.20;99.90
18384;DHT22;9318;48.644;9.456;2022-10-16T08:50:21;17.30;99.90
18384;DHT22;9318;48.644;9.456;2022-10-16T08:52:50;17.40;99.90
18384;DHT22;9318;48.644;9.456;2022-10-16T08:55:33;17.60;99.90
18384;DHT22;9318;48.644;9.456;2022-10-16T08:58:11;17.70;99.90
18384;DHT22;9318;48.644;9.456;2022-10-16T09:00:39;17.80;99.90
18384;DHT22;9318;48.644;9.456;2022-10-16T09:03:17;17.90;99.90
18384;DHT22;9318;48.644;9.456;2022-10-16T09:05:54;18.00;99.90
18384;DHT22;9318;48.644;9.456;2022-10-16T09:08:31;18.00;99.90
18384;DHT22;9318;48.644;9.456;2022-10-16T09:11:09;18.00;99.90
18384;DHT22;9318;48.644;9.456;2022-10-16T09:13:48;17.90;99.90
18384;DHT22;9318;48.644;9.456;2022-10-16T09:16:20;17.90;99.90
18384;DHT22;9318;48.644;9.456;2022-10-16T09:18:58;17.90;99.90
18384;DHT22;9318;48.644;9.456;2022-10-16T09:21:29;18.00;99.90
18384;DHT22;9318;48.644;9.456;2022-10-16T09:24:00;18.00;99.90
18384;DHT22;9318;48.644;9.456;2022-10-16T09:26:31;18.10;99.90
18384;DHT22;9318;48.644;9.456;2022-10-16T09:28:59;18.20;99.90
18384;DHT22;9318;48.644;9.456;2022-10-16T09:31:26;18.30;99.90
18384;DHT22;9318;48.644;9.456;2022-10-16T09:33:57;18.40;99.90
18384;DHT22;9318;48.644;9.456;2022-10-16T09:36:26;18.50;99.90
18384;DHT22;9318;48.644;9.456;2022-10-16T09:39:05;18.70;99.90
18384;DHT22;9318;48.644;9.456;2022-10-16T09:41:35;18.80;99.90
18384;DHT22;9318;48.644;9.456;2022-10-16T09:44:05;18.90;99.90
18384;DHT22;9318;48.644;9.456;2022-10-16T09:46:39;19.10;99.90
18384;DHT22;9318;48.644;9.456;2022-10-16T09:49:20;19.20;99.90
18384;DHT22;9318;48.644;9.456;2022-10-16T09:51:48;19.30;99.90
18384;DHT22;9318;48.644;9.456;2022-10-16T09:54:17;19.40;99.90
18384;DHT22;9318;48.644;9.456;2022-10-16T09:56:45;19.50;99.90
18384;DHT22;9318;48.644;9.456;2022-10-16T09:59:15;19.50;99.90
18384;DHT22;9318;48.644;9.456;2022-10-16T10:01:46;19.60;99.90
18384;DHT22;9318;48.644;9.456;2022-10-16T10:04:14;19.50;99.90
18384;DHT22;9318;48.644;9.456;2022-10-16T10:06:44;19.50;99.90
18384;DHT22;9318;48.644;9.456;2022-10-16T10:09:18;19.60;99.90
18384;DHT22;9318;48.644;9.456;2022-10-16T10:11:54;19.60;99.90
18384;DHT22;9318;48.644;9.456;2022-10-16T10:14:24;19.70;99.90
18384;DHT22;9318;48.644;9.456;2022-10-16T10:17:01;19.70;99.90
18384;DHT22;9318;48.644;9.456;2022-10-16T10:19:28;19.70;99.90
18384;DHT22;9318;48.644;9.456;2022-10-16T10:21:57;19.80;99.90
18384;DHT22;9318;48.644;9.456;2022-10-16T10:24:24;20.00;99.90
18384;DHT22;9318;48.644;9.456;2022-10-16T10:26:56;20.40;99.90
18384;DHT22;9318;48.644;9.456;2022-10-16T10:29:36;20.80;99.90
18384;DHT22;9318;48.644;9.456;2022-10-16T10:32:17;21.70;99.90
18384;DHT22;9318;48.644;9.456;2022-10-16T10:34:57;22.60;99.90
18384;DHT22;9318;48.644;9.456;2022-10-16T10:37:39;23.60;99.90
18384;DHT22;9318;48.644;9.456;2022-10-16T10:40:16;24.90;99.90
18384;DHT22;9318;48.644;9.456;2022-10-16T10:42:52;25.90;99.90
18384;DHT22;9318;48.644;9.456;2022-10-16T10:45:26;26.40;99.90
18384;DHT22;9318;48.644;9.456;2022-10-16T10:48:03;26.60;99.90
18384;DHT22;9318;48.644;9.456;2022-10-16T10:50:39;27.00;99.90
18384;DHT22;9318;48.644;9.456;2022-10-16T10:53:18;27.20;99.90
18384;DHT22;9318;48.644;9.456;2022-10-16T10:55:51;27.20;99.90
18384;DHT22;9318;48.644;9.456;2022-10-16T10:58:44;27.50;99.90
18384;DHT22;9318;48.644;9.456;2022-10-16T11:01:15;28.70;99.90
18384;DHT22;9318;48.644;9.456;2022-10-16T11:04:03;29.30;99.90
18384;DHT22;9318;48.644;9.456;2022-10-16T11:06:37;29.50;99.90
18384;DHT22;9318;48.644;9.456;2022-10-16T11:09:12;29.50;99.90
18384;DHT22;9318;48.644;9.456;2022-10-16T11:11:45;28.90;99.90
18384;DHT22;9318;48.644;9.456;2022-10-16T11:14:17;28.30;99.90
18384;DHT22;9318;48.644;9.456;2022-10-16T11:16:51;27.70;99.90
18384;DHT22;9318;48.644;9.456;2022-10-16T11:19:28;27.70;99.90
18384;DHT22;9318;48.644;9.456;2022-10-16T11:22:02;27.40;99.90
18384;DHT22;9318;48.644;9.456;2022-10-16T11:24:39;27.00;99.90
18384;DHT22;9318;48.644;9.456;2022-10-16T11:27:10;26.60;99.90
18384;DHT22;9318;48.644;9.456;2022-10-16T11:29:46;26.70;99.90
18384;DHT22;9318;48.644;9.456;2022-10-16T11:32:22;26.60;99.90
18384;DHT22;9318;48.644;9.456;2022-10-16T11:34:53;26.60;99.90
18384;DHT22;9318;48.644;9.456;2022-10-16T11:37:27;26.70;99.90
18384;DHT22;9318;48.644;9.456;2022-10-16T11:40:05;27.40;99.90
18384;DHT22;9318;48.644;9.456;2022-10-16T11:42:41;28.50;99.90
18384;DHT22;9318;48.644;9.456;2022-10-16T11:45:18;29.90;98.90
18384;DHT22;9318;48.644;9.456;2022-10-16T11:47:53;32.00;95.20
18384;DHT22;9318;48.644;9.456;2022-10-16T11:50:26;33.70;91.30
18384;DHT22;9318;48.644;9.456;2022-10-16T11:53:01;35.10;83.80
18384;DHT22;9318;48.644;9.456;2022-10-16T11:55:34;36.60;76.60
18384;DHT22;9318;48.644;9.456;2022-10-16T11:58:06;37.80;68.90
18384;DHT22;9318;48.644;9.456;2022-10-16T12:00:40;38.60;63.40
18384;DHT22;9318;48.644;9.456;2022-10-16T12:03:17;38.90;59.70
18384;DHT22;9318;48.644;9.456;2022-10-16T12:06:02;38.50;59.30
18384;DHT22;9318;48.644;9.456;2022-10-16T12:08:34;37.10;59.50
18384;DHT22;9318;48.644;9.456;2022-10-16T12:11:20;35.90;62.10
18384;DHT22;9318;48.644;9.456;2022-10-16T12:13:50;34.20;62.80
18384;DHT22;9318;48.644;9.456;2022-10-16T12:16:24;32.60;71.50
18384;DHT22;9318;48.644;9.456;2022-10-16T12:19:09;31.50;73.60
18384;DHT22;9318;48.644;9.456;2022-10-16T12:21:37;31.10;73.50
18384;DHT22;9318;48.644;9.456;2022-10-16T12:24:05;31.10;73.00
18384;DHT22;9318;48.644;9.456;2022-10-16T12:26:37;30.40;77.80
18384;DHT22;9318;48.644;9.456;2022-10-16T12:29:17;29.90;75.10
18384;DHT22;9318;48.644;9.456;2022-10-16T12:31:50;29.40;77.20
18384;DHT22;9318;48.644;9.456;2022-10-16T12:34:22;29.00;81.10
18384;DHT22;9318;48.644;9.456;2022-10-16T12:36:51;29.00;79.70
18384;DHT22;9318;48.644;9.456;2022-10-16T12:39:22;29.20;78.40
18384;DHT22;9318;48.644;9.456;2022-10-16T12:42:03;29.40;82.00
18384;DHT22;9318;48.644;9.456;2022-10-16T12:44:34;29.60;77.20
18384;DHT22;9318;48.644;9.456;2022-10-16T12:47:02;29.70;77.20
18384;DHT22;9318;48.644;9.456;2022-10-16T12:49:35;29.80;78.10
18384;DHT22;9318;48.644;9.456;2022-10-16T12:52:04;29.80;78.10
18384;DHT22;9318;48.644;9.456;2022-10-16T12:54:35;29.80;81.60
18384;DHT22;9318;48.644;9.456;2022-10-16T12:57:12;29.40;77.00
18384;DHT22;9318;48.644;9.456;2022-10-16T12:59:46;29.10;79.30
18384;DHT22;9318;48.644;9.456;2022-10-16T13:02:39;28.70;80.50
18384;DHT22;9318;48.644;9.456;2022-10-16T13:05:23;28.30;82.20
18384;DHT22;9318;48.644;9.456;2022-10-16T13:08:05;28.40;83.10
18384;DHT22;9318;48.644;9.456;2022-10-16T13:10:40;29.20;82.60
18384;DHT22;9318;48.644;9.456;2022-10-16T13:13:29;29.40;78.30
18384;DHT22;9318;48.644;9.456;2022-10-16T13:16:10;29.10;78.80
18384;DHT22;9318;48.644;9.456;2022-10-16T13:18:46;29.00;80.40
18384;DHT22;9318;48.644;9.456;2022-10-16T13:21:31;28.80;77.20
18384;DHT22;9318;48.644;9.456;2022-10-16T13:24:04;28.30;76.60
18384;DHT22;9318;48.644;9.456;2022-10-16T13:26:41;28.20;77.10
18384;DHT22;9318;48.644;9.456;2022-10-16T13:29:12;28.70;79.30
18384;DHT22;9318;48.644;9.456;2022-10-16T13:31:40;29.80;75.20
18384;DHT22;9318;48.644;9.456;2022-10-16T13:34:14;30.50;74.70
18384;DHT22;9318;48.644;9.456;2022-10-16T13:36:45;30.90;71.60
18384;DHT22;9318;48.644;9.456;2022-10-16T13:39:14;30.80;72.20
18384;DHT22;9318;48.644;9.456;2022-10-16T13:41:43;30.50;70.70
18384;DHT22;9318;48.644;9.456;2022-10-16T13:44:17;30.20;72.20
18384;DHT22;9318;48.644;9.456;2022-10-16T13:46:45;29.80;74.40
18384;DHT22;9318;48.644;9.456;2022-10-16T13:49:15;29.10;79.80
18384;DHT22;9318;48.644;9.456;2022-10-16T13:51:54;28.40;83.10
18384;DHT22;9318;48.644;9.456;2022-10-16T13:54:22;27.70;79.10
18384;DHT22;9318;48.644;9.456;2022-10-16T13:56:49;27.20;86.20
18384;DHT22;9318;48.644;9.456;2022-10-16T13:59:26;26.60;88.50
18384;DHT22;9318;48.644;9.456;2022-10-16T14:01:56;26.10;89.40
18384;DHT22;9318;48.644;9.456;2022-10-16T14:04:25;25.70;90.80
18384;DHT22;9318;48.644;9.456;2022-10-16T14:06:55;25.30;90.80
18384;DHT22;9318;48.644;9.456;2022-10-16T14:09:24;25.00;91.10
18384;DHT22;9318;48.644;9.456;2022-10-16T14:11:54;24.90;90.70
18384;DHT22;9318;48.644;9.456;2022-10-16T14:14:24;24.80;92.40
18384;DHT22;9318;48.644;9.456;2022-10-16T14:16:52;24.70;93.30
18384;DHT22;9318;48.644;9.456;2022-10-16T14:19:22;24.50;93.90
18384;DHT22;9318;48.644;9.456;2022-10-16T14:21:50;24.40;92.70
18384;DHT22;9318;48.644;9.456;2022-10-16T14:24:27;24.30;95.00
18384;DHT22;9318;48.644;9.456;2022-10-16T14:26:54;24.20;93.70
18384;DHT22;9318;48.644;9.456;2022-10-16T14:29:23;24.10;91.60
18384;DHT22;9318;48.644;9.456;2022-10-16T14:32:00;24.10;95.10
18384;DHT22;9318;48.644;9.456;2022-10-16T14:34:30;24.00;93.40
18384;DHT22;9318;48.644;9.456;2022-10-16T14:37:00;24.00;94.70
18384;DHT22;9318;48.644;9.456;2022-10-16T14:39:33;24.00;96.30
18384;DHT22;9318;48.644;9.456;2022-10-16T14:42:00;23.90;96.70
18384;DHT22;9318;48.644;9.456;2022-10-16T14:44:31;23.80;95.80
18384;DHT22;9318;48.644;9.456;2022-10-16T14:47:07;23.80;95.80
18384;DHT22;9318;48.644;9.456;2022-10-16T14:49:35;23.70;97.10
18384;DHT22;9318;48.644;9.456;2022-10-16T14:52:08;23.50;97.90
18384;DHT22;9318;48.644;9.456;2022-10-16T14:54:36;23.30;98.30
18384;DHT22;9318;48.644;9.456;2022-10-16T14:57:03;23.40;98.80
18384;DHT22;9318;48.644;9.456;2022-10-16T14:59:33;22.90;99.40
18384;DHT22;9318;48.644;9.456;2022-10-16T15:02:18;22.80;99.90
18384;DHT22;9318;48.644;9.456;2022-10-16T15:04:45;22.60;99.90
18384;DHT22;9318;48.644;9.456;2022-10-16T15:07:13;22.40;99.90
18384;DHT22;9318;48.644;9.456;2022-10-16T15:09:40;22.30;99.90
18384;DHT22;9318;48.644;9.456;2022-10-16T15:12:07;22.20;99.90
18384;DHT22;9318;48.644;9.456;2022-10-16T15:14:34;22.00;99.90
18384;DHT22;9318;48.644;9.456;2022-10-16T15:17:03;21.90;99.90
18384;DHT22;9318;48.644;9.456;2022-10-16T15:19:30;21.80;99.90
18384;DHT22;9318;48.644;9.456;2022-10-16T15:21:58;21.70;99.90
18384;DHT22;9318;48.644;9.456;2022-10-16T15:24:25;21.70;99.90
18384;DHT22;9318;48.644;9.456;2022-10-16T15:26:52;21.60;99.90
18384;DHT22;9318;48.644;9.456;2022-10-16T15:29:19;21.60;99.90
18384;DHT22;9318;48.644;9.456;2022-10-16T15:31:46;21.60;99.90
18384;DHT22;9318;48.644;9.456;2022-10-16T15:34:15;21.70;99.90
18384;DHT22;9318;48.644;9.456;2022-10-16T15:36:44;21.70;99.90
18384;DHT22;9318;48.644;9.456;2022-10-16T15:39:14;21.70;99.90
18384;DHT22;9318;48.644;9.456;2022-10-16T15:41:42;21.70;99.90
18384;DHT22;9318;48.644;9.456;2022-10-16T15:44:10;21.60;99.90
18384;DHT22;9318;48.644;9.456;2022-10-16T15:46:37;21.60;99.90
18384;DHT22;9318;48.644;9.456;2022-10-16T15:49:04;21.60;99.90
18384;DHT22;9318;48.644;9.456;2022-10-16T15:51:33;21.50;99.90
18384;DHT22;9318;48.644;9.456;2022-10-16T15:54:00;21.50;99.90
18384;DHT22;9318;48.644;9.456;2022-10-16T15:56:27;21.50;99.90
18384;DHT22;9318;48.644;9.456;2022-10-16T15:58:54;21.40;99.90
18384;DHT22;9318;48.644;9.456;2022-10-16T16:01:22;21.30;99.90
18384;DHT22;9318;48.644;9.456;2022-10-16T16:03:52;21.20;99.90
18384;DHT22;9318;48.644;9.456;2022-10-16T16:06:20;21.10;99.90
18384;DHT22;9318;48.644;9.456;2022-10-16T16:08:50;21.00;99.90